<?xml version="1.0" encoding="UTF-8" standalone="no" ?><gpx xmlns="http://www.topografix.com/GPX/1/1" xmlns:gpxx="http://www.garmin.com/xmlschemas/GpxExtensions/v3" xmlns:wptx1="http://www.garmin.com/xmlschemas/WaypointExtension/v1" xmlns:gpxtpx="http://www.garmin.com/xmlschemas/TrackPointExtension/v1" creator="GuideVTT.com" version="1.1" xmlns:xsi="http://www.w3.org/2001/XMLSchema-instance" xsi:schemaLocation="http://www.topografix.com/GPX/1/1 http://www.topografix.com/GPX/1/1/gpx.xsd http://www.garmin.com/xmlschemas/GpxExtensions/v3 http://www8.garmin.com/xmlschemas/GpxExtensionsv3.xsd http://www.garmin.com/xmlschemas/WaypointExtension/v1 http://www8.garmin.com/xmlschemas/WaypointExtensionv1.xsd http://www.garmin.com/xmlschemas/TrackPointExtension/v1 http://www.garmin.com/xmlschemas/TrackPointExtensionv1.xsd">
<metadata><link href="http://www.garmin.com"><text>Garmin International</text></link><time>2013-06-22T15:13:50Z</time></metadata>
<trk><name>ne_tn_753.gpx</name><extensions><gpxx:TrackExtension><gpxx:DisplayColor>Cyan</gpxx:DisplayColor></gpxx:TrackExtension></extensions><trkseg>
<trkpt lat="47.09808939" lon="6.82382339"><ele>996.517639</ele><time>2008-04-14T16:46:27Z</time></trkpt>
<trkpt lat="47.09880501" lon="6.82307751"><ele>996.874207</ele><time>2008-04-14T16:46:50Z</time></trkpt>
<trkpt lat="47.09707155" lon="6.82021270"><ele>999.741211</ele><time>2008-04-14T16:48:00Z</time></trkpt>
<trkpt lat="47.09846400" lon="6.81820757"><ele>1010.242615</ele><time>2008-04-14T16:48:52Z</time></trkpt>
<trkpt lat="47.09935670" lon="6.81694581"><ele>1022.586426</ele><time>2008-04-14T16:49:25Z</time></trkpt>
<trkpt lat="47.10010840" lon="6.81456595"><ele>1047.868164</ele><time>2008-04-14T16:50:13Z</time></trkpt>
<trkpt lat="47.10015451" lon="6.81477618"><ele>1046.856079</ele><time>2008-04-14T16:50:17Z</time></trkpt>
<trkpt lat="47.10020413" lon="6.81563185"><ele>1042.720825</ele><time>2008-04-14T16:50:32Z</time></trkpt>
<trkpt lat="47.10047504" lon="6.81582630"><ele>1045.309082</ele><time>2008-04-14T16:50:40Z</time></trkpt>
<trkpt lat="47.10164506" lon="6.81594444"><ele>1057.648926</ele><time>2008-04-14T16:51:12Z</time></trkpt>
<trkpt lat="47.10285284" lon="6.81639148"><ele>1064.80542</ele><time>2008-04-14T16:51:45Z</time></trkpt>
<trkpt lat="47.10393462" lon="6.81682684"><ele>1065.509155</ele><time>2008-04-14T16:52:15Z</time></trkpt>
<trkpt lat="47.10407647" lon="6.81644315"><ele>1072.162842</ele><time>2008-04-14T16:52:23Z</time></trkpt>
<trkpt lat="47.10456182" lon="6.81637164"><ele>1077.158813</ele><time>2008-04-14T16:52:36Z</time></trkpt>
<trkpt lat="47.10488670" lon="6.81656548"><ele>1076.468506</ele><time>2008-04-14T16:52:45Z</time></trkpt>
<trkpt lat="47.10506588" lon="6.81643166"><ele>1079.406372</ele><time>2008-04-14T16:52:51Z</time></trkpt>
<trkpt lat="47.10505475" lon="6.81603656"><ele>1085.123169</ele><time>2008-04-14T16:52:58Z</time></trkpt>
<trkpt lat="47.10523285" lon="6.81570513"><ele>1091.331299</ele><time>2008-04-14T16:53:05Z</time></trkpt>
<trkpt lat="47.10518467" lon="6.81511285"><ele>1105.223389</ele><time>2008-04-14T16:53:16Z</time></trkpt>
<trkpt lat="47.10613703" lon="6.81490415"><ele>1112.112427</ele><time>2008-04-14T16:53:42Z</time></trkpt>
<trkpt lat="47.10658490" lon="6.81455640"><ele>1117.072632</ele><time>2008-04-14T16:53:56Z</time></trkpt>
<trkpt lat="47.10662529" lon="6.81371276"><ele>1129.817139</ele><time>2008-04-14T16:54:11Z</time></trkpt>
<trkpt lat="47.10616406" lon="6.81325703"><ele>1138.768433</ele><time>2008-04-14T16:54:26Z</time></trkpt>
<trkpt lat="47.10621552" lon="6.81279532"><ele>1142.04187</ele><time>2008-04-14T16:54:34Z</time></trkpt>
<trkpt lat="47.10692358" lon="6.81232593"><ele>1147.362793</ele><time>2008-04-14T16:54:55Z</time></trkpt>
<trkpt lat="47.10729021" lon="6.81192640"><ele>1150.758301</ele><time>2008-04-14T16:55:07Z</time></trkpt>
<trkpt lat="47.10773778" lon="6.81152592"><ele>1154.463379</ele><time>2008-04-14T16:55:21Z</time></trkpt>
<trkpt lat="47.10845549" lon="6.81117497"><ele>1158.24707</ele><time>2008-04-14T16:55:41Z</time></trkpt>
<trkpt lat="47.10862351" lon="6.81064600"><ele>1160.440063</ele><time>2008-04-14T16:55:52Z</time></trkpt>
<trkpt lat="47.10835805" lon="6.80980591"><ele>1163.301636</ele><time>2008-04-14T16:56:09Z</time></trkpt>
<trkpt lat="47.10790501" lon="6.80920518"><ele>1167.801514</ele><time>2008-04-14T16:56:25Z</time></trkpt>
<trkpt lat="47.10749779" lon="6.80876202"><ele>1175.865356</ele><time>2008-04-14T16:56:39Z</time></trkpt>
<trkpt lat="47.10745029" lon="6.80830145"><ele>1181.042847</ele><time>2008-04-14T16:56:47Z</time></trkpt>
<trkpt lat="47.10766248" lon="6.80762704"><ele>1181.414795</ele><time>2008-04-14T16:57:01Z</time></trkpt>
<trkpt lat="47.10721928" lon="6.80718432"><ele>1186.087158</ele><time>2008-04-14T16:57:15Z</time></trkpt>
<trkpt lat="47.10698216" lon="6.80659425"><ele>1193.694214</ele><time>2008-04-14T16:57:27Z</time></trkpt>
<trkpt lat="47.10716996" lon="6.80639441"><ele>1194.335083</ele><time>2008-04-14T16:57:34Z</time></trkpt>
<trkpt lat="47.10792370" lon="6.80605614"><ele>1198.267334</ele><time>2008-04-14T16:57:55Z</time></trkpt>
<trkpt lat="47.10797542" lon="6.80564711"><ele>1203.501221</ele><time>2008-04-14T16:58:02Z</time></trkpt>
<trkpt lat="47.10868346" lon="6.80517762"><ele>1215.696655</ele><time>2008-04-14T16:58:23Z</time></trkpt>
<trkpt lat="47.10935479" lon="6.80457679"><ele>1223.928589</ele><time>2008-04-14T16:58:44Z</time></trkpt>
<trkpt lat="47.10967539" lon="6.80399328"><ele>1226.584351</ele><time>2008-04-14T16:58:58Z</time></trkpt>
<trkpt lat="47.10904497" lon="6.80385582"><ele>1234.147583</ele><time>2008-04-14T16:59:15Z</time></trkpt>
<trkpt lat="47.10867372" lon="6.80341226"><ele>1239.848877</ele><time>2008-04-14T16:59:27Z</time></trkpt>
<trkpt lat="47.10890495" lon="6.80293521"><ele>1244.624878</ele><time>2008-04-14T16:59:38Z</time></trkpt>
<trkpt lat="47.10939791" lon="6.80261316"><ele>1249.863892</ele><time>2008-04-14T16:59:53Z</time></trkpt>
<trkpt lat="47.10961269" lon="6.80241298"><ele>1253.411621</ele><time>2008-04-14T16:59:59Z</time></trkpt>
<trkpt lat="47.10970462" lon="6.80114705"><ele>1259.993286</ele><time>2008-04-14T17:00:22Z</time></trkpt>
<trkpt lat="47.10937284" lon="6.79971489"><ele>1267.82373</ele><time>2008-04-14T17:00:50Z</time></trkpt>
<trkpt lat="47.10901912" lon="6.79919209"><ele>1274.675781</ele><time>2008-04-14T17:01:03Z</time></trkpt>
<trkpt lat="47.10819357" lon="6.79793714"><ele>1271.611206</ele><time>2008-04-14T17:01:35Z</time></trkpt>
<trkpt lat="47.10724931" lon="6.79636746"><ele>1261.807251</ele><time>2008-04-14T17:02:13Z</time></trkpt>
<trkpt lat="47.10651345" lon="6.79507199"><ele>1258.33667</ele><time>2008-04-14T17:02:44Z</time></trkpt>
<trkpt lat="47.10516808" lon="6.79416594"><ele>1260.001343</ele><time>2008-04-14T17:03:23Z</time></trkpt>
<trkpt lat="47.10457863" lon="6.79331671"><ele>1252.404541</ele><time>2008-04-14T17:03:46Z</time></trkpt>
<trkpt lat="47.10406493" lon="6.79154441"><ele>1248.224854</ele><time>2008-04-14T17:04:21Z</time></trkpt>
<trkpt lat="47.10375058" lon="6.79003320"><ele>1243.511841</ele><time>2008-04-14T17:04:49Z</time></trkpt>
<trkpt lat="47.10328782" lon="6.78773338"><ele>1240.93042</ele><time>2008-04-14T17:05:33Z</time></trkpt>
<trkpt lat="47.10323493" lon="6.78633759"><ele>1245.826294</ele><time>2008-04-14T17:05:58Z</time></trkpt>
<trkpt lat="47.10272420" lon="6.78510548"><ele>1246.185913</ele><time>2008-04-14T17:06:25Z</time></trkpt>
<trkpt lat="47.10186970" lon="6.78353508"><ele>1246.826904</ele><time>2008-04-14T17:07:01Z</time></trkpt>
<trkpt lat="47.10095298" lon="6.78209723"><ele>1244.633545</ele><time>2008-04-14T17:07:37Z</time></trkpt>
<trkpt lat="47.10005604" lon="6.78097533"><ele>1247.134277</ele><time>2008-04-14T17:08:08Z</time></trkpt>
<trkpt lat="47.10036670" lon="6.78024700"><ele>1242.097534</ele><time>2008-04-14T17:08:24Z</time></trkpt>
<trkpt lat="47.10049452" lon="6.77900715"><ele>1230.104004</ele><time>2008-04-14T17:08:47Z</time></trkpt>
<trkpt lat="47.09989475" lon="6.77794752"><ele>1232.996582</ele><time>2008-04-14T17:09:12Z</time></trkpt>
<trkpt lat="47.09926957" lon="6.77716485"><ele>1236.758789</ele><time>2008-04-14T17:09:34Z</time></trkpt>
<trkpt lat="47.09899518" lon="6.77637787"><ele>1236.90625</ele><time>2008-04-14T17:09:50Z</time></trkpt>
<trkpt lat="47.09907348" lon="6.77591586"><ele>1233.185303</ele><time>2008-04-14T17:09:59Z</time></trkpt>
<trkpt lat="47.09930430" lon="6.77538609"><ele>1228.250488</ele><time>2008-04-14T17:10:10Z</time></trkpt>
<trkpt lat="47.09907457" lon="6.77454587"><ele>1230.752441</ele><time>2008-04-14T17:10:27Z</time></trkpt>
<trkpt lat="47.09857636" lon="6.77394610"><ele>1235.282715</ele><time>2008-04-14T17:10:44Z</time></trkpt>
<trkpt lat="47.09803028" lon="6.77284637"><ele>1237.291138</ele><time>2008-04-14T17:11:08Z</time></trkpt>
<trkpt lat="47.09789070" lon="6.77204458"><ele>1231.754883</ele><time>2008-04-14T17:11:24Z</time></trkpt>
<trkpt lat="47.09756863" lon="6.77079721"><ele>1224.689453</ele><time>2008-04-14T17:11:48Z</time></trkpt>
<trkpt lat="47.09706703" lon="6.76961795"><ele>1221.882813</ele><time>2008-04-14T17:12:13Z</time></trkpt>
<trkpt lat="47.09656465" lon="6.76830699"><ele>1215.78186</ele><time>2008-04-14T17:12:40Z</time></trkpt>
<trkpt lat="47.09606687" lon="6.76778634"><ele>1214.441406</ele><time>2008-04-14T17:12:57Z</time></trkpt>
<trkpt lat="47.09547400" lon="6.76792548"><ele>1219.698853</ele><time>2008-04-14T17:13:13Z</time></trkpt>
<trkpt lat="47.09529303" lon="6.76774333"><ele>1217.69812</ele><time>2008-04-14T17:13:19Z</time></trkpt>
<trkpt lat="47.09493562" lon="6.76661503"><ele>1211.184692</ele><time>2008-04-14T17:13:41Z</time></trkpt>
<trkpt lat="47.09505507" lon="6.76550710"><ele>1205.902588</ele><time>2008-04-14T17:14:02Z</time></trkpt>
<trkpt lat="47.09492057" lon="6.76404672"><ele>1203.95874</ele><time>2008-04-14T17:14:29Z</time></trkpt>
<trkpt lat="47.09405649" lon="6.76242431"><ele>1221.009644</ele><time>2008-04-14T17:15:06Z</time></trkpt>
<trkpt lat="47.09332211" lon="6.76144572"><ele>1223.452637</ele><time>2008-04-14T17:15:32Z</time></trkpt>
<trkpt lat="47.09264479" lon="6.76099328"><ele>1220.890015</ele><time>2008-04-14T17:15:52Z</time></trkpt>
<trkpt lat="47.09201284" lon="6.76060614"><ele>1219.11499</ele><time>2008-04-14T17:16:11Z</time></trkpt>
<trkpt lat="47.09169220" lon="6.75962237"><ele>1217.427124</ele><time>2008-04-14T17:16:30Z</time></trkpt>
<trkpt lat="47.09088778" lon="6.75897402"><ele>1225.170898</ele><time>2008-04-14T17:16:55Z</time></trkpt>
<trkpt lat="47.08998910" lon="6.75911712"><ele>1225.048462</ele><time>2008-04-14T17:17:19Z</time></trkpt>
<trkpt lat="47.08931489" lon="6.75919152"><ele>1228.38855</ele><time>2008-04-14T17:17:37Z</time></trkpt>
<trkpt lat="47.08796095" lon="6.75840530"><ele>1229.030273</ele><time>2008-04-14T17:18:16Z</time></trkpt>
<trkpt lat="47.08727423" lon="6.75788722"><ele>1230.048828</ele><time>2008-04-14T17:18:37Z</time></trkpt>
<trkpt lat="47.08687465" lon="6.75724697"><ele>1231.732056</ele><time>2008-04-14T17:18:53Z</time></trkpt>
<trkpt lat="47.08610815" lon="6.75692747"><ele>1237.828369</ele><time>2008-04-14T17:19:14Z</time></trkpt>
<trkpt lat="47.08546484" lon="6.75614548"><ele>1236.851807</ele><time>2008-04-14T17:19:36Z</time></trkpt>
<trkpt lat="47.08469317" lon="6.75495689"><ele>1229.930298</ele><time>2008-04-14T17:20:06Z</time></trkpt>
<trkpt lat="47.08523832" lon="6.75435732"><ele>1228.622803</ele><time>2008-04-14T17:20:24Z</time></trkpt>
<trkpt lat="47.08536932" lon="6.75369717"><ele>1226.035645</ele><time>2008-04-14T17:20:37Z</time></trkpt>
<trkpt lat="47.08563570" lon="6.75311431"><ele>1222.859375</ele><time>2008-04-14T17:20:49Z</time></trkpt>
<trkpt lat="47.08640103" lon="6.75323622"><ele>1224.682129</ele><time>2008-04-14T17:21:10Z</time></trkpt>
<trkpt lat="47.08702401" lon="6.75362335"><ele>1230.449219</ele><time>2008-04-14T17:21:28Z</time></trkpt>
<trkpt lat="47.08734703" lon="6.75348752"><ele>1230.360718</ele><time>2008-04-14T17:21:37Z</time></trkpt>
<trkpt lat="47.08783742" lon="6.75275690"><ele>1227.381592</ele><time>2008-04-14T17:21:56Z</time></trkpt>
<trkpt lat="47.08846775" lon="6.75286737"><ele>1228.971924</ele><time>2008-04-14T17:22:13Z</time></trkpt>
<trkpt lat="47.08878067" lon="6.75254727"><ele>1228.619873</ele><time>2008-04-14T17:22:23Z</time></trkpt>
<trkpt lat="47.08926245" lon="6.75188259"><ele>1221.689575</ele><time>2008-04-14T17:22:41Z</time></trkpt>
<trkpt lat="47.08986113" lon="6.75271783"><ele>1214.952515</ele><time>2008-04-14T17:23:03Z</time></trkpt>
<trkpt lat="47.09003446" lon="6.75312391"><ele>1214.52063</ele><time>2008-04-14T17:23:11Z</time></trkpt>
<trkpt lat="47.09045057" lon="6.75351371"><ele>1203.149536</ele><time>2008-04-14T17:23:25Z</time></trkpt>
<trkpt lat="47.09081741" lon="6.75469439"><ele>1207.694336</ele><time>2008-04-14T17:23:48Z</time></trkpt>
<trkpt lat="47.09108608" lon="6.75449340"><ele>1206.371826</ele><time>2008-04-14T17:23:56Z</time></trkpt>
<trkpt lat="47.09116232" lon="6.75370217"><ele>1193.118042</ele><time>2008-04-14T17:24:11Z</time></trkpt>
<trkpt lat="47.09170824" lon="6.75323421"><ele>1180.563965</ele><time>2008-04-14T17:24:28Z</time></trkpt>
<trkpt lat="47.09274569" lon="6.75373462"><ele>1176.421875</ele><time>2008-04-14T17:24:57Z</time></trkpt>
<trkpt lat="47.09319981" lon="6.75446642"><ele>1181.960327</ele><time>2008-04-14T17:25:15Z</time></trkpt>
<trkpt lat="47.09405626" lon="6.75478478"><ele>1174.277954</ele><time>2008-04-14T17:25:38Z</time></trkpt>
<trkpt lat="47.09477896" lon="6.75530243"><ele>1175.078735</ele><time>2008-04-14T17:26:00Z</time></trkpt>
<trkpt lat="47.09541602" lon="6.75654564"><ele>1177.567627</ele><time>2008-04-14T17:26:28Z</time></trkpt>
<trkpt lat="47.09542070" lon="6.75733590"><ele>1184.462158</ele><time>2008-04-14T17:26:43Z</time></trkpt>
<trkpt lat="47.09595326" lon="6.75764526"><ele>1179.98584</ele><time>2008-04-14T17:26:58Z</time></trkpt>
<trkpt lat="47.09641947" lon="6.75890387"><ele>1186.055542</ele><time>2008-04-14T17:27:24Z</time></trkpt>
<trkpt lat="47.09669670" lon="6.76015172"><ele>1187.537231</ele><time>2008-04-14T17:27:48Z</time></trkpt>
<trkpt lat="47.09710682" lon="6.76105542"><ele>1185.855225</ele><time>2008-04-14T17:28:08Z</time></trkpt>
<trkpt lat="47.09764379" lon="6.76211560"><ele>1182.168823</ele><time>2008-04-14T17:28:32Z</time></trkpt>
<trkpt lat="47.09742396" lon="6.76297459"><ele>1192.147461</ele><time>2008-04-14T17:28:48Z</time></trkpt>
<trkpt lat="47.09760540" lon="6.76323575"><ele>1192.176514</ele><time>2008-04-14T17:28:55Z</time></trkpt>
<trkpt lat="47.09787524" lon="6.76323235"><ele>1189.563232</ele><time>2008-04-14T17:29:02Z</time></trkpt>
<trkpt lat="47.09823347" lon="6.76296438"><ele>1181.62207</ele><time>2008-04-14T17:29:13Z</time></trkpt>
<trkpt lat="47.09868312" lon="6.76294554"><ele>1173.245483</ele><time>2008-04-14T17:29:25Z</time></trkpt>
<trkpt lat="47.09931515" lon="6.76334593"><ele>1164.478638</ele><time>2008-04-14T17:29:43Z</time></trkpt>
<trkpt lat="47.10004874" lon="6.76419294"><ele>1151.251465</ele><time>2008-04-14T17:30:08Z</time></trkpt>
<trkpt lat="47.10040922" lon="6.76430696"><ele>1144.348389</ele><time>2008-04-14T17:30:18Z</time></trkpt>
<trkpt lat="47.10044808" lon="6.76326579"><ele>1135.454834</ele><time>2008-04-14T17:30:37Z</time></trkpt>
<trkpt lat="47.09948535" lon="6.76169717"><ele>1136.354858</ele><time>2008-04-14T17:31:16Z</time></trkpt>
<trkpt lat="47.09881975" lon="6.76170558"><ele>1151.353271</ele><time>2008-04-14T17:31:33Z</time></trkpt>
<trkpt lat="47.09858512" lon="6.76157681"><ele>1155.619507</ele><time>2008-04-14T17:31:40Z</time></trkpt>
<trkpt lat="47.09854565" lon="6.76098454"><ele>1149.865601</ele><time>2008-04-14T17:31:51Z</time></trkpt>
<trkpt lat="47.09785977" lon="6.75908319"><ele>1149.711304</ele><time>2008-04-14T17:32:30Z</time></trkpt>
<trkpt lat="47.09776593" lon="6.75842575"><ele>1152.586914</ele><time>2008-04-14T17:32:42Z</time></trkpt>
<trkpt lat="47.09798643" lon="6.75768529"><ele>1144.475464</ele><time>2008-04-14T17:32:57Z</time></trkpt>
<trkpt lat="47.09793646" lon="6.75684288"><ele>1138.762085</ele><time>2008-04-14T17:33:12Z</time></trkpt>
<trkpt lat="47.09761766" lon="6.75617514"><ele>1136.182861</ele><time>2008-04-14T17:33:27Z</time></trkpt>
<trkpt lat="47.09680510" lon="6.75567177"><ele>1139.799561</ele><time>2008-04-14T17:33:51Z</time></trkpt>
<trkpt lat="47.09756925" lon="6.75559617"><ele>1129.208618</ele><time>2008-04-14T17:34:11Z</time></trkpt>
<trkpt lat="47.09810853" lon="6.75552343"><ele>1116.870117</ele><time>2008-04-14T17:34:26Z</time></trkpt>
<trkpt lat="47.09859463" lon="6.75558310"><ele>1107.36084</ele><time>2008-04-14T17:34:39Z</time></trkpt>
<trkpt lat="47.09923082" lon="6.75516663"><ele>1085.352783</ele><time>2008-04-14T17:34:57Z</time></trkpt>
<trkpt lat="47.10008029" lon="6.75431272"><ele>1068.265991</ele><time>2008-04-14T17:35:25Z</time></trkpt>
<trkpt lat="47.10116975" lon="6.75599817"><ele>1068.009033</ele><time>2008-04-14T17:36:07Z</time></trkpt>
<trkpt lat="47.10190072" lon="6.75791220"><ele>1072.012573</ele><time>2008-04-14T17:36:47Z</time></trkpt>
<trkpt lat="47.10239885" lon="6.75848551"><ele>1069.823486</ele><time>2008-04-14T17:37:04Z</time></trkpt>
<trkpt lat="47.10307348" lon="6.76000512"><ele>1073.05896</ele><time>2008-04-14T17:37:37Z</time></trkpt>
<trkpt lat="47.10344848" lon="6.76105428"><ele>1079.814575</ele><time>2008-04-14T17:37:58Z</time></trkpt>
<trkpt lat="47.10385239" lon="6.76243245"><ele>1080.440063</ele><time>2008-04-14T17:38:26Z</time></trkpt>
<trkpt lat="47.10467343" lon="6.76438504"><ele>1082.893921</ele><time>2008-04-14T17:39:07Z</time></trkpt>
<trkpt lat="47.10495292" lon="6.76602831"><ele>1085.859863</ele><time>2008-04-14T17:39:38Z</time></trkpt>
<trkpt lat="47.10523276" lon="6.76773747"><ele>1084.88855</ele><time>2008-04-14T17:40:10Z</time></trkpt>
<trkpt lat="47.10529026" lon="6.76834277"><ele>1083.119629</ele><time>2008-04-14T17:40:21Z</time></trkpt>
<trkpt lat="47.10619701" lon="6.76958301"><ele>1067.608521</ele><time>2008-04-14T17:40:54Z</time></trkpt>
<trkpt lat="47.10642563" lon="6.77022571"><ele>1063.687744</ele><time>2008-04-14T17:41:08Z</time></trkpt>
<trkpt lat="47.10646207" lon="6.77030431"><ele>1063.137451</ele><time>2008-04-14T17:41:09Z</time></trkpt>
<trkpt lat="47.10611656" lon="6.77121766"><ele>1072.57251</ele><time>2008-04-14T17:41:28Z</time></trkpt>
<trkpt lat="47.10648674" lon="6.77300480"><ele>1075.823242</ele><time>2008-04-14T17:42:02Z</time></trkpt>
<trkpt lat="47.10635311" lon="6.77478503"><ele>1097.54541</ele><time>2008-04-14T17:42:36Z</time></trkpt>
<trkpt lat="47.10658360" lon="6.77575711"><ele>1101.478516</ele><time>2008-04-14T17:42:55Z</time></trkpt>
<trkpt lat="47.10659715" lon="6.77654742"><ele>1108.416504</ele><time>2008-04-14T17:43:09Z</time></trkpt>
<trkpt lat="47.10627372" lon="6.77661729"><ele>1116.15332</ele><time>2008-04-14T17:43:18Z</time></trkpt>
<trkpt lat="47.10592035" lon="6.77617372"><ele>1122.036987</ele><time>2008-04-14T17:43:30Z</time></trkpt>
<trkpt lat="47.10583450" lon="6.77688620"><ele>1126.765015</ele><time>2008-04-14T17:43:43Z</time></trkpt>
<trkpt lat="47.10546504" lon="6.77677219"><ele>1129.859497</ele><time>2008-04-14T17:43:53Z</time></trkpt>
<trkpt lat="47.10511880" lon="6.77756693"><ele>1135.174316</ele><time>2008-04-14T17:44:10Z</time></trkpt>
<trkpt lat="47.10520278" lon="6.77809287"><ele>1135.392212</ele><time>2008-04-14T17:44:20Z</time></trkpt>
<trkpt lat="47.10471700" lon="6.77808568"><ele>1144.194092</ele><time>2008-04-14T17:44:33Z</time></trkpt>
<trkpt lat="47.10417664" lon="6.77797377"><ele>1154.482056</ele><time>2008-04-14T17:44:48Z</time></trkpt>
<trkpt lat="47.10368451" lon="6.77842775"><ele>1171.984863</ele><time>2008-04-14T17:45:03Z</time></trkpt>
<trkpt lat="47.10395329" lon="6.77980772"><ele>1184.442139</ele><time>2008-04-14T17:45:30Z</time></trkpt>
<trkpt lat="47.10423861" lon="6.78093718"><ele>1193.454834</ele><time>2008-04-14T17:45:51Z</time></trkpt>
<trkpt lat="47.10455681" lon="6.78152611"><ele>1190.355957</ele><time>2008-04-14T17:46:05Z</time></trkpt>
<trkpt lat="47.10437805" lon="6.78172591"><ele>1197.065796</ele><time>2008-04-14T17:46:11Z</time></trkpt>
<trkpt lat="47.10415055" lon="6.78126761"><ele>1199.016357</ele><time>2008-04-14T17:46:21Z</time></trkpt>
<trkpt lat="47.10342834" lon="6.78081538"><ele>1210.725098</ele><time>2008-04-14T17:46:42Z</time></trkpt>
<trkpt lat="47.10280022" lon="6.78108657"><ele>1218.601318</ele><time>2008-04-14T17:47:00Z</time></trkpt>
<trkpt lat="47.10207309" lon="6.78134579"><ele>1225.714111</ele><time>2008-04-14T17:47:20Z</time></trkpt>
<trkpt lat="47.10321627" lon="6.78305754"><ele>1227.167358</ele><time>2008-04-14T17:48:03Z</time></trkpt>
<trkpt lat="47.10398232" lon="6.78489253"><ele>1227.107666</ele><time>2008-04-14T17:48:43Z</time></trkpt>
<trkpt lat="47.10408493" lon="6.78553681"><ele>1231.310303</ele><time>2008-04-14T17:48:55Z</time></trkpt>
<trkpt lat="47.10472016" lon="6.78651713"><ele>1229.081543</ele><time>2008-04-14T17:49:19Z</time></trkpt>
<trkpt lat="47.10440655" lon="6.78673173"><ele>1235.268921</ele><time>2008-04-14T17:49:29Z</time></trkpt>
<trkpt lat="47.10390878" lon="6.78619765"><ele>1238.706665</ele><time>2008-04-14T17:49:45Z</time></trkpt>
<trkpt lat="47.10323575" lon="6.78648250"><ele>1245.596069</ele><time>2008-04-14T17:50:04Z</time></trkpt>
<trkpt lat="47.10201390" lon="6.78674766"><ele>1237.03479</ele><time>2008-04-14T17:50:37Z</time></trkpt>
<trkpt lat="47.10139484" lon="6.78703183"><ele>1235.366943</ele><time>2008-04-14T17:50:54Z</time></trkpt>
<trkpt lat="47.10117475" lon="6.78787760"><ele>1236.202026</ele><time>2008-04-14T17:51:10Z</time></trkpt>
<trkpt lat="47.10081504" lon="6.78789514"><ele>1236.916016</ele><time>2008-04-14T17:51:20Z</time></trkpt>
<trkpt lat="47.10054483" lon="6.78783256"><ele>1236.313721</ele><time>2008-04-14T17:51:27Z</time></trkpt>
<trkpt lat="47.10009763" lon="6.78828587"><ele>1236.170654</ele><time>2008-04-14T17:51:42Z</time></trkpt>
<trkpt lat="47.10010961" lon="6.79040659"><ele>1232.939575</ele><time>2008-04-14T17:52:20Z</time></trkpt>
<trkpt lat="47.10020728" lon="6.79177541"><ele>1232.208496</ele><time>2008-04-14T17:52:46Z</time></trkpt>
<trkpt lat="47.10065523" lon="6.79145384"><ele>1230.971313</ele><time>2008-04-14T17:52:59Z</time></trkpt>
<trkpt lat="47.10087288" lon="6.79176737"><ele>1230.732422</ele><time>2008-04-14T17:53:07Z</time></trkpt>
<trkpt lat="47.10133686" lon="6.79269708"><ele>1229.901733</ele><time>2008-04-14T17:53:28Z</time></trkpt>
<trkpt lat="47.10196723" lon="6.79282122"><ele>1228.567261</ele><time>2008-04-14T17:53:45Z</time></trkpt>
<trkpt lat="47.10250831" lon="6.79306500"><ele>1227.060059</ele><time>2008-04-14T17:54:00Z</time></trkpt>
<trkpt lat="47.10282381" lon="6.79478695"><ele>1237.523071</ele><time>2008-04-14T17:54:32Z</time></trkpt>
<trkpt lat="47.10364438" lon="6.79675318"><ele>1231.695557</ele><time>2008-04-14T17:55:14Z</time></trkpt>
<trkpt lat="47.10410358" lon="6.79844713"><ele>1222.348755</ele><time>2008-04-14T17:55:48Z</time></trkpt>
<trkpt lat="47.10479970" lon="6.80069160"><ele>1231.437744</ele><time>2008-04-14T17:56:32Z</time></trkpt>
<trkpt lat="47.10502931" lon="6.80154520"><ele>1231.407959</ele><time>2008-04-14T17:56:49Z</time></trkpt>
<trkpt lat="47.10417439" lon="6.80147631"><ele>1227.581543</ele><time>2008-04-14T17:57:12Z</time></trkpt>
<trkpt lat="47.10354447" lon="6.80143111"><ele>1229.983154</ele><time>2008-04-14T17:57:29Z</time></trkpt>
<trkpt lat="47.10377772" lon="6.80294334"><ele>1222.38562</ele><time>2008-04-14T17:57:57Z</time></trkpt>
<trkpt lat="47.10400798" lon="6.80391548"><ele>1212.067871</ele><time>2008-04-14T17:58:16Z</time></trkpt>
<trkpt lat="47.10431343" lon="6.80384599"><ele>1210.089478</ele><time>2008-04-14T17:58:24Z</time></trkpt>
<trkpt lat="47.10473989" lon="6.80614642"><ele>1188.886963</ele><time>2008-04-14T17:59:07Z</time></trkpt>
<trkpt lat="47.10505483" lon="6.80780266"><ele>1178.876221</ele><time>2008-04-14T17:59:39Z</time></trkpt>
<trkpt lat="47.10515488" lon="6.80964588"><ele>1169.718018</ele><time>2008-04-14T18:00:12Z</time></trkpt>
<trkpt lat="47.10530420" lon="6.81063220"><ele>1162.836182</ele><time>2008-04-14T18:00:31Z</time></trkpt>
<trkpt lat="47.10512970" lon="6.81162231"><ele>1153.938721</ele><time>2008-04-14T18:00:49Z</time></trkpt>
<trkpt lat="47.10544875" lon="6.81239587"><ele>1144.980347</ele><time>2008-04-14T18:01:06Z</time></trkpt>
<trkpt lat="47.10571643" lon="6.81199751"><ele>1148.189087</ele><time>2008-04-14T18:01:16Z</time></trkpt>
<trkpt lat="47.10607737" lon="6.81220408"><ele>1146.71936</ele><time>2008-04-14T18:01:26Z</time></trkpt>
<trkpt lat="47.10621588" lon="6.81286119"><ele>1141.52063</ele><time>2008-04-14T18:01:39Z</time></trkpt>
<trkpt lat="47.10621552" lon="6.81279532"><ele>1142.04187</ele><time>2008-04-14T18:01:40Z</time></trkpt>
<trkpt lat="47.10616406" lon="6.81325703"><ele>1138.768433</ele><time>2008-04-14T18:01:48Z</time></trkpt>
<trkpt lat="47.10662529" lon="6.81371276"><ele>1129.817139</ele><time>2008-04-14T18:02:03Z</time></trkpt>
<trkpt lat="47.10658490" lon="6.81455640"><ele>1117.072632</ele><time>2008-04-14T18:02:19Z</time></trkpt>
<trkpt lat="47.10613703" lon="6.81490415"><ele>1112.112427</ele><time>2008-04-14T18:02:32Z</time></trkpt>
<trkpt lat="47.10518467" lon="6.81511285"><ele>1105.223389</ele><time>2008-04-14T18:02:58Z</time></trkpt>
<trkpt lat="47.10523285" lon="6.81570513"><ele>1091.331299</ele><time>2008-04-14T18:03:09Z</time></trkpt>
<trkpt lat="47.10505475" lon="6.81603656"><ele>1085.123169</ele><time>2008-04-14T18:03:16Z</time></trkpt>
<trkpt lat="47.10506588" lon="6.81643166"><ele>1079.406372</ele><time>2008-04-14T18:03:24Z</time></trkpt>
<trkpt lat="47.10488670" lon="6.81656548"><ele>1076.468506</ele><time>2008-04-14T18:03:29Z</time></trkpt>
<trkpt lat="47.10456182" lon="6.81637164"><ele>1077.158813</ele><time>2008-04-14T18:03:38Z</time></trkpt>
<trkpt lat="47.10407647" lon="6.81644315"><ele>1072.162842</ele><time>2008-04-14T18:03:51Z</time></trkpt>
<trkpt lat="47.10393462" lon="6.81682684"><ele>1065.509155</ele><time>2008-04-14T18:03:59Z</time></trkpt>
<trkpt lat="47.10285284" lon="6.81639148"><ele>1064.80542</ele><time>2008-04-14T18:04:29Z</time></trkpt>
<trkpt lat="47.10164506" lon="6.81594444"><ele>1057.648926</ele><time>2008-04-14T18:05:03Z</time></trkpt>
<trkpt lat="47.10047504" lon="6.81582630"><ele>1045.309082</ele><time>2008-04-14T18:05:34Z</time></trkpt>
<trkpt lat="47.10020413" lon="6.81563185"><ele>1042.720825</ele><time>2008-04-14T18:05:42Z</time></trkpt>
<trkpt lat="47.10015451" lon="6.81477618"><ele>1046.856079</ele><time>2008-04-14T18:05:58Z</time></trkpt>
<trkpt lat="47.10010840" lon="6.81456595"><ele>1047.868164</ele><time>2008-04-14T18:06:02Z</time></trkpt>
<trkpt lat="47.09935670" lon="6.81694581"><ele>1022.586426</ele><time>2008-04-14T18:06:49Z</time></trkpt>
<trkpt lat="47.09846400" lon="6.81820757"><ele>1010.242615</ele><time>2008-04-14T18:07:22Z</time></trkpt>
<trkpt lat="47.09707155" lon="6.82021270"><ele>999.741211</ele><time>2008-04-14T18:08:15Z</time></trkpt>
<trkpt lat="47.09880501" lon="6.82307751"><ele>996.874207</ele><time>2008-04-14T18:09:24Z</time></trkpt>
<trkpt lat="47.09808939" lon="6.82382339"><ele>996.517639</ele><time>2008-04-14T18:09:48Z</time></trkpt>
</trkseg></trk></gpx>